createdAt,value
2023-06-08T00:01:12.928Z,18.38
2023-06-08T00:04:17.394Z,21.33
2023-06-08T00:07:20.272Z,17.02
2023-06-08T00:10:25.438Z,17.27
2023-06-08T00:13:28.442Z,18.33
2023-06-08T00:19:40.500Z,20.75
2023-06-08T00:22:44.246Z,16.77
2023-06-08T00:25:46.740Z,14.07
2023-06-08T00:28:49.913Z,18.33
2023-06-08T00:31:52.444Z,15.90
2023-06-08T00:34:55.231Z,22.23
2023-06-08T00:37:57.826Z,20.83
2023-06-08T00:41:00.577Z,15.40
2023-06-08T00:44:05.755Z,19.58
2023-06-08T00:47:09.269Z,17.45
2023-06-08T00:50:12.994Z,22.90
2023-06-08T00:56:21.281Z,14.98
2023-06-08T00:59:24.499Z,24.08
2023-06-08T01:02:26.679Z,15.57
2023-06-08T01:05:29.171Z,20.27
2023-06-08T01:08:53.738Z,20.23
2023-06-08T01:12:17.207Z,14.13
2023-06-08T01:15:35.054Z,16.70
2023-06-08T01:18:40.169Z,25.48
2023-06-08T01:22:04.557Z,27.95
2023-06-08T01:25:08.359Z,17.83
2023-06-08T01:28:16.951Z,18.48
2023-06-08T01:31:19.293Z,20.08
2023-06-08T01:34:22.457Z,17.75
2023-06-08T01:37:39.755Z,30.67
2023-06-08T01:40:46.954Z,15.55
2023-06-08T01:43:51.978Z,27.85
2023-06-08T01:46:58.125Z,15.40
2023-06-08T01:50:01.248Z,19.55
2023-06-08T01:53:03.849Z,18.98
2023-06-08T01:56:06.144Z,21.73
2023-06-08T01:59:08.465Z,15.10
2023-06-08T02:02:10.650Z,20.08
2023-06-08T02:05:23.258Z,24.67
2023-06-08T02:08:25.570Z,21.08
2023-06-08T02:11:27.964Z,19.60
2023-06-08T02:14:30.087Z,18.83
2023-06-08T02:17:35.017Z,16.98
2023-06-08T02:20:38.241Z,13.35
2023-06-08T02:23:40.782Z,22.83
2023-06-08T02:26:44.216Z,14.53
2023-06-08T02:29:46.345Z,23.65
2023-06-08T02:32:49.325Z,19.73
2023-06-08T02:35:51.515Z,18.00
2023-06-08T02:38:54.629Z,23.30
2023-06-08T02:41:56.886Z,19.08
2023-06-08T02:44:59.023Z,14.23
2023-06-08T02:48:01.759Z,23.85
2023-06-08T02:51:04.552Z,16.20
2023-06-08T02:54:06.629Z,13.88
2023-06-08T02:57:09.020Z,17.50
2023-06-08T03:00:14.625Z,14.05
2023-06-08T03:03:16.806Z,14.45
2023-06-08T03:06:20.329Z,5.78
2023-06-08T03:09:24.084Z,9.20
2023-06-08T03:12:26.197Z,13.18
2023-06-08T03:15:28.429Z,9.02
2023-06-08T03:18:30.552Z,15.05
2023-06-08T03:21:32.767Z,8.00
2023-06-08T03:24:35.474Z,12.00
2023-06-08T03:27:37.670Z,5.97
2023-06-08T03:30:40.775Z,7.10
2023-06-08T03:33:43.441Z,8.48
2023-06-08T03:36:46.089Z,9.43
2023-06-08T03:39:48.257Z,4.35
2023-06-08T03:42:52.301Z,11.35
2023-06-08T03:45:54.462Z,7.78
2023-06-08T03:48:56.739Z,12.75
2023-06-08T03:51:59.198Z,8.32
2023-06-08T03:55:01.565Z,13.88
2023-06-08T03:58:04.123Z,6.72
2023-06-08T04:01:07.132Z,5.47
2023-06-08T04:04:09.313Z,14.70
2023-06-08T04:07:12.908Z,12.20
2023-06-08T04:10:15.564Z,6.55
2023-06-08T04:13:17.773Z,13.95
2023-06-08T04:16:23.510Z,15.73
2023-06-08T04:19:25.718Z,10.45
2023-06-08T04:22:28.496Z,13.73
2023-06-08T04:25:31.423Z,23.15
2023-06-08T04:28:34.831Z,15.70
2023-06-08T04:31:36.960Z,15.97
2023-06-08T04:34:39.640Z,17.25
2023-06-08T04:37:43.498Z,16.23
2023-06-08T04:40:55.929Z,19.40
2023-06-08T04:44:02.801Z,12.98
2023-06-08T04:47:09.126Z,9.75
2023-06-08T04:50:11.628Z,9.45
2023-06-08T04:53:14.695Z,16.85
2023-06-08T04:56:20.260Z,9.55
2023-06-08T04:59:22.980Z,12.70
2023-06-08T05:02:25.310Z,14.00
2023-06-08T05:05:27.456Z,9.15
2023-06-08T05:08:29.749Z,15.45
2023-06-08T05:11:31.888Z,10.05
2023-06-08T05:14:34.208Z,9.40
2023-06-08T05:17:36.606Z,15.07
2023-06-08T05:20:38.960Z,11.25
2023-06-08T05:23:41.612Z,13.88
2023-06-08T05:26:43.855Z,11.43
2023-06-08T05:29:46.206Z,10.63
2023-06-08T05:32:48.382Z,12.60
2023-06-08T05:35:50.620Z,13.02
2023-06-08T05:38:52.687Z,10.15
2023-06-08T05:41:54.820Z,7.97
2023-06-08T05:44:56.922Z,8.35
2023-06-08T05:47:59.271Z,12.80
2023-06-08T05:51:01.580Z,10.77
2023-06-08T05:54:04.211Z,8.63
2023-06-08T05:57:06.691Z,8.95
2023-06-08T06:00:13.763Z,10.85
2023-06-08T06:03:16.669Z,10.07
2023-06-08T06:06:18.914Z,13.00
2023-06-08T06:09:22.099Z,17.77
2023-06-08T06:12:24.258Z,14.00
2023-06-08T06:15:26.814Z,8.35
2023-06-08T06:18:29.079Z,7.70
2023-06-08T06:21:31.327Z,11.60
2023-06-08T06:24:33.483Z,13.80
2023-06-08T06:27:44.890Z,14.18
2023-06-08T06:30:49.816Z,9.30
2023-06-08T06:33:52.719Z,7.78
2023-06-08T06:36:58.295Z,11.52
2023-06-08T06:40:00.502Z,6.22
2023-06-08T06:43:02.903Z,9.38
2023-06-08T06:46:05.214Z,7.68
2023-06-08T06:49:08.732Z,5.00
2023-06-08T06:52:11.014Z,8.02
2023-06-08T06:55:13.664Z,8.23
2023-06-08T06:58:16.451Z,5.38
2023-06-08T07:01:19.964Z,6.88
2023-06-08T07:04:26.219Z,13.48
2023-06-08T07:07:29.593Z,4.85
2023-06-08T07:10:31.857Z,5.47
2023-06-08T07:13:34.138Z,4.47
2023-06-08T07:16:36.465Z,4.13
2023-06-08T07:19:40.668Z,6.38
2023-06-08T07:22:56.844Z,4.45
2023-06-08T07:26:20.444Z,4.68
2023-06-08T07:29:31.449Z,7.05
2023-06-08T07:32:34.706Z,4.22
2023-06-08T07:35:37.874Z,4.32
2023-06-08T07:38:40.386Z,4.43
2023-06-08T07:41:42.539Z,3.67
2023-06-08T07:44:44.723Z,4.20
2023-06-08T07:47:47.238Z,7.22
2023-06-08T07:50:49.518Z,2.97
2023-06-08T07:53:51.848Z,5.65
2023-06-08T07:56:53.956Z,9.75
2023-06-08T07:59:56.127Z,5.03
2023-06-08T08:02:58.682Z,6.13
2023-06-08T08:06:01.012Z,5.35
2023-06-08T08:09:04.442Z,3.15
2023-06-08T08:12:07.371Z,3.23
2023-06-08T08:15:10.144Z,2.13
2023-06-08T08:18:14.289Z,3.65
2023-06-08T08:24:23.289Z,2.60
2023-06-08T08:27:25.615Z,2.60
2023-06-08T08:30:28.245Z,4.53
2023-06-08T08:33:31.617Z,2.95
2023-06-08T08:36:33.727Z,1.33
2023-06-08T08:39:36.054Z,1.90
2023-06-08T08:42:46.840Z,0.45
2023-06-08T08:45:51.512Z,0.50
2023-06-08T08:49:03.352Z,2.13
2023-06-08T08:52:10.010Z,2.83
2023-06-08T08:55:25.902Z,2.90
2023-06-08T08:58:35.778Z,4.57
2023-06-08T09:01:41.580Z,2.00
2023-06-08T09:04:46.013Z,7.00
2023-06-08T09:07:48.182Z,4.75
2023-06-08T09:11:10.682Z,18.33
2023-06-08T09:14:13.306Z,4.28
2023-06-08T09:17:38.620Z,8.27
2023-06-08T09:20:41.619Z,3.72
2023-06-08T09:23:43.936Z,12.15
2023-06-08T09:26:54.602Z,11.93
2023-06-08T09:29:58.556Z,7.60
2023-06-08T09:33:00.705Z,7.38
2023-06-08T09:36:03.396Z,12.63
2023-06-08T09:39:09.409Z,10.50
2023-06-08T09:42:12.323Z,9.18
2023-06-08T09:45:16.139Z,16.45
2023-06-08T09:48:18.250Z,18.50
2023-06-08T09:51:23.094Z,8.80
2023-06-08T09:54:25.310Z,6.95
2023-06-08T09:57:29.334Z,10.93
2023-06-08T10:00:35.110Z,15.10
2023-06-08T10:03:49.144Z,12.30
2023-06-08T10:07:16.950Z,22.35
2023-06-08T10:10:23.839Z,13.95
2023-06-08T10:13:27.765Z,10.35
2023-06-08T10:16:30.438Z,9.60
2023-06-08T10:19:36.122Z,14.32
2023-06-08T10:22:40.604Z,11.38
2023-06-08T10:25:47.351Z,13.13
2023-06-08T10:32:16.266Z,8.52
2023-06-08T10:35:18.564Z,17.75
2023-06-08T10:38:23.195Z,9.63
2023-06-08T10:41:42.855Z,12.15
2023-06-08T10:44:45.333Z,10.88
2023-06-08T10:47:48.395Z,4.72
2023-06-08T10:50:54.207Z,12.45
2023-06-08T10:53:58.292Z,5.05
2023-06-08T10:57:16.096Z,9.60
2023-06-08T11:00:29.457Z,5.47
2023-06-08T11:03:46.449Z,10.07
2023-06-08T11:06:48.603Z,7.47
2023-06-08T11:09:51.211Z,9.77
2023-06-08T11:12:55.237Z,5.47
2023-06-08T11:15:58.886Z,8.65
2023-06-08T11:19:01.081Z,11.27
2023-06-08T11:22:04.111Z,7.38
2023-06-08T11:25:08.971Z,11.27
2023-06-08T11:28:12.647Z,9.13
2023-06-08T11:31:14.988Z,10.68
2023-06-08T11:34:19.433Z,10.20
2023-06-08T11:37:21.631Z,3.78
2023-06-08T11:40:24.176Z,4.68
2023-06-08T11:43:26.257Z,5.60
2023-06-08T11:46:29.793Z,6.40
2023-06-08T11:49:53.357Z,13.30
2023-06-08T11:52:56.007Z,8.63
2023-06-08T11:55:59.056Z,6.00
2023-06-08T11:59:02.690Z,10.82
2023-06-08T12:02:10.833Z,9.02
2023-06-08T12:05:18.377Z,10.88
2023-06-08T12:08:22.497Z,9.02
2023-06-08T12:11:27.074Z,9.00
2023-06-08T12:14:35.904Z,10.65
2023-06-08T12:17:41.065Z,10.07
2023-06-08T12:20:44.446Z,10.25
2023-06-08T12:23:47.033Z,7.32
2023-06-08T12:26:49.292Z,12.73
2023-06-08T12:29:51.509Z,8.27
2023-06-08T12:32:54.874Z,7.93
2023-06-08T12:35:57.145Z,9.98
2023-06-08T12:39:00.149Z,11.10
2023-06-08T12:42:02.475Z,11.43
2023-06-08T12:45:05.040Z,6.03
2023-06-08T12:48:07.803Z,19.45
2023-06-08T12:51:10.100Z,15.20
2023-06-08T12:54:12.284Z,6.30
2023-06-08T12:57:15.982Z,6.32
2023-06-08T13:00:22.751Z,8.52
2023-06-08T13:03:25.226Z,8.05
2023-06-08T13:06:27.722Z,6.03
2023-06-08T13:09:30.012Z,10.10
2023-06-08T13:12:32.511Z,6.47
2023-06-08T13:15:34.997Z,4.97
2023-06-08T13:18:37.442Z,8.43
2023-06-08T13:21:39.673Z,9.82
2023-06-08T13:24:42.703Z,5.47
2023-06-08T13:27:45.296Z,4.90
2023-06-08T13:30:48.005Z,6.35
2023-06-08T13:33:50.177Z,10.90
2023-06-08T13:36:52.549Z,11.63
2023-06-08T13:39:54.771Z,12.10
2023-06-08T13:42:57.784Z,10.53
2023-06-08T13:46:00.032Z,22.38
2023-06-08T13:49:02.861Z,13.93
2023-06-08T13:52:05.417Z,14.80
2023-06-08T13:55:07.888Z,22.75
2023-06-08T13:58:09.958Z,17.77
2023-06-08T14:01:12.219Z,13.45
2023-06-08T14:04:14.527Z,13.77
2023-06-08T14:07:16.728Z,15.93
2023-06-08T14:10:18.963Z,23.95
2023-06-08T14:13:21.705Z,15.02
2023-06-08T14:16:26.995Z,17.40
2023-06-08T14:19:29.673Z,14.88
2023-06-08T14:22:31.802Z,16.65
2023-06-08T14:25:34.173Z,12.70
2023-06-08T14:28:36.786Z,15.70
2023-06-08T14:31:38.903Z,17.92
2023-06-08T14:34:41.338Z,22.20
2023-06-08T14:37:43.498Z,13.32
2023-06-08T14:40:45.723Z,15.52
2023-06-08T14:43:52.331Z,13.40
2023-06-08T14:46:54.507Z,18.90
2023-06-08T14:49:56.851Z,26.58
2023-06-08T14:52:59.387Z,24.75
2023-06-08T14:56:01.633Z,16.52
2023-06-08T14:59:03.738Z,36.08
2023-06-08T15:02:06.576Z,16.52
2023-06-08T15:05:09.422Z,17.60
2023-06-08T15:08:11.588Z,17.70
2023-06-08T15:11:17.498Z,22.95
2023-06-08T15:14:20.512Z,19.50
2023-06-08T15:17:23.004Z,17.67
2023-06-08T15:20:25.328Z,22.60
2023-06-08T15:23:27.484Z,23.52
2023-06-08T15:26:29.813Z,21.75
2023-06-08T15:29:32.202Z,17.35
2023-06-08T15:32:37.397Z,24.88
2023-06-08T15:35:39.742Z,17.20
2023-06-08T15:38:42.346Z,24.65
2023-06-08T15:41:45.051Z,26.52
2023-06-08T15:44:47.541Z,16.90
2023-06-08T15:47:51.850Z,18.08
2023-06-08T15:50:56.546Z,21.42
2023-06-08T15:54:00.445Z,21.13
2023-06-08T15:57:03.309Z,19.00
2023-06-08T16:00:09.501Z,17.77
2023-06-08T16:03:11.902Z,20.63
2023-06-08T16:06:16.254Z,13.90
2023-06-08T16:09:18.447Z,23.58
2023-06-08T16:12:20.900Z,24.10
2023-06-08T16:15:24.106Z,21.35
2023-06-08T16:18:26.635Z,22.63
2023-06-08T16:21:31.922Z,20.90
2023-06-08T16:24:34.112Z,18.48
2023-06-08T16:27:36.400Z,24.17
2023-06-08T16:30:38.636Z,31.63
2023-06-08T16:33:42.016Z,26.50
2023-06-08T16:36:44.376Z,20.50
2023-06-08T16:39:46.547Z,23.23
2023-06-08T16:42:49.078Z,20.15
2023-06-08T16:45:51.611Z,22.55
2023-06-08T16:48:54.690Z,33.95
2023-06-08T16:51:57.072Z,30.42
2023-06-08T16:54:59.302Z,35.72
2023-06-08T16:58:01.686Z,27.20
2023-06-08T17:01:04.557Z,29.85
2023-06-08T17:04:06.799Z,22.00
2023-06-08T17:07:09.040Z,35.05
2023-06-08T17:10:11.418Z,39.63
2023-06-08T17:13:16.299Z,28.15
2023-06-08T17:16:18.707Z,26.35
2023-06-08T17:19:21.098Z,27.75
2023-06-08T17:22:24.189Z,25.02
2023-06-08T17:25:26.644Z,22.77
2023-06-08T17:28:28.873Z,33.83
2023-06-08T17:31:31.200Z,37.65
2023-06-08T17:34:35.930Z,40.38
2023-06-08T17:37:38.387Z,48.28
2023-06-08T17:40:40.691Z,30.73
2023-06-08T17:43:49.700Z,41.58
2023-06-08T17:46:51.951Z,46.13
2023-06-08T17:49:54.063Z,37.40
2023-06-08T17:53:00.757Z,39.28
2023-06-08T17:56:03.019Z,31.08
2023-06-08T17:59:05.387Z,36.35
2023-06-08T18:02:07.559Z,38.40
2023-06-08T18:05:09.914Z,30.45
2023-06-08T18:08:13.409Z,28.80
2023-06-08T18:11:16.833Z,36.00
2023-06-08T18:14:19.458Z,40.25
2023-06-08T18:17:21.759Z,34.75
2023-06-08T18:20:27.610Z,40.95
2023-06-08T18:23:29.912Z,40.85
2023-06-08T18:26:32.130Z,39.35
2023-06-08T18:29:34.404Z,42.13
2023-06-08T18:32:38.619Z,36.95
2023-06-08T18:35:41.134Z,44.90
2023-06-08T18:38:50.526Z,36.15
2023-06-08T18:41:52.637Z,42.95
2023-06-08T18:44:59.302Z,50.22
2023-06-08T18:48:01.991Z,39.63
2023-06-08T18:51:04.257Z,38.25
2023-06-08T18:54:06.598Z,42.28
2023-06-08T18:57:08.760Z,54.08
2023-06-08T19:00:12.144Z,41.95
2023-06-08T19:03:14.622Z,43.10
2023-06-08T19:06:16.898Z,80.38
2023-06-08T19:09:26.864Z,58.78
2023-06-08T19:12:30.958Z,61.58
2023-06-08T19:15:33.044Z,49.17
2023-06-08T19:18:36.889Z,41.72
2023-06-08T19:21:40.255Z,41.45
2023-06-08T19:24:42.549Z,46.80
2023-06-08T19:27:44.672Z,52.25
2023-06-08T19:30:46.875Z,52.92
2023-06-08T19:33:49.233Z,45.40
2023-06-08T19:36:53.104Z,45.70
2023-06-08T19:39:55.161Z,34.35
2023-06-08T19:42:58.570Z,42.73
2023-06-08T19:46:00.851Z,35.88
2023-06-08T19:49:03.261Z,51.88
2023-06-08T19:52:07.286Z,45.08
2023-06-08T19:55:11.232Z,41.75
2023-06-08T19:58:13.300Z,48.42
2023-06-08T20:01:18.581Z,44.85
2023-06-08T20:04:21.258Z,54.42
2023-06-08T20:07:24.209Z,38.17
2023-06-08T20:10:26.363Z,47.25
2023-06-08T20:13:28.449Z,46.25
2023-06-08T20:16:31.181Z,38.22
2023-06-08T20:19:33.970Z,41.78
2023-06-08T20:22:36.103Z,36.35
2023-06-08T20:25:38.179Z,47.63
2023-06-08T20:28:40.295Z,55.42
2023-06-08T20:31:43.828Z,48.10
2023-06-08T20:34:46.399Z,35.67
2023-06-08T20:37:48.604Z,61.15
2023-06-08T20:40:50.765Z,40.55
2023-06-08T20:43:55.582Z,36.03
2023-06-08T20:46:58.438Z,43.63
2023-06-08T20:50:00.652Z,45.08
2023-06-08T20:53:02.875Z,42.20
2023-06-08T20:56:05.157Z,31.65
2023-06-08T20:59:07.762Z,36.22
2023-06-08T21:02:10.620Z,42.22
2023-06-08T21:05:17.204Z,43.70
2023-06-08T21:08:19.385Z,42.95
2023-06-08T21:11:22.001Z,68.50
2023-06-08T21:14:28.367Z,41.65
2023-06-08T21:17:30.910Z,50.53
2023-06-08T21:20:33.102Z,44.20
2023-06-08T21:23:35.253Z,46.53
2023-06-08T21:26:37.540Z,53.30
2023-06-08T21:29:39.627Z,34.15
2023-06-08T21:32:42.032Z,42.47
2023-06-08T21:35:49.580Z,41.95
2023-06-08T21:39:00.236Z,40.70
2023-06-08T21:42:03.417Z,42.05
2023-06-08T21:45:06.309Z,45.13
2023-06-08T21:48:08.765Z,43.17
2023-06-08T21:51:11.196Z,43.30
2023-06-08T21:54:15.955Z,48.58
2023-06-08T21:57:19.082Z,49.25
2023-06-08T22:00:21.938Z,56.00
2023-06-08T22:03:24.514Z,42.03
2023-06-08T22:06:27.028Z,40.95
2023-06-08T22:09:29.731Z,39.55
2023-06-08T22:12:32.401Z,35.15
2023-06-08T22:15:34.514Z,32.75
2023-06-08T22:18:36.550Z,32.78
2023-06-08T22:21:45.392Z,50.40
2023-06-08T22:24:47.593Z,40.85
2023-06-08T22:27:51.761Z,40.70
2023-06-08T22:30:54.434Z,50.40
2023-06-08T22:33:56.553Z,36.63
2023-06-08T22:36:58.669Z,48.65
2023-06-08T22:40:00.815Z,54.97
2023-06-08T22:43:04.408Z,43.40
2023-06-08T22:46:06.627Z,45.65
2023-06-08T22:49:11.698Z,29.02
2023-06-08T22:52:16.700Z,50.28
2023-06-08T22:55:18.872Z,33.97
2023-06-08T22:58:21.504Z,39.47
2023-06-08T23:01:24.702Z,35.20
2023-06-08T23:07:30.740Z,46.40
2023-06-08T23:10:33.938Z,44.85
2023-06-08T23:13:39.013Z,58.60
2023-06-08T23:16:41.614Z,57.60
2023-06-08T23:19:50.789Z,51.58
2023-06-08T23:22:53.198Z,34.42
2023-06-08T23:25:55.616Z,37.95
2023-06-08T23:29:01.533Z,38.70
2023-06-08T23:32:04.181Z,52.25
2023-06-08T23:35:07.259Z,34.15
2023-06-08T23:38:09.605Z,41.58
2023-06-08T23:41:12.053Z,33.03
2023-06-08T23:44:15.068Z,51.70
2023-06-08T23:47:23.280Z,33.97
2023-06-08T23:50:25.581Z,34.30
2023-06-08T23:53:27.799Z,45.67
2023-06-08T23:56:29.975Z,38.63
2023-06-08T23:59:32.005Z,35.67
